.
WxDataArchive / Data Records for 2008-05-29
2008-05-28 May 2008 2008-05-30

Data Records for Thursday, 29 May 2008

Time	Temp	Chill	HIndex	Humid	Dewpt	 Wind 	HiWind	WindDir	Rain 	Barom 
-----	----	-----	------	-----	-----	------	------	-------	-----	----- 
00:00	46.1	46.1	46.1	64	34.6	0	0	---	0.00	30.222 
00:05	46.0	46.0	46.0	65	34.9	0	0	---	0.00	30.219 
00:10	45.8	45.8	45.8	66	35.1	0	0	---	0.00	30.218 
00:15	45.7	45.7	45.7	66	35.0	0	0	---	0.00	30.218 
00:20	45.4	45.4	45.4	66	34.7	0	0	---	0.00	30.218 
00:25	45.2	45.2	45.2	67	34.9	0	0	---	0.00	30.219 
00:30	45.1	45.1	45.1	68	35.2	0	0	---	0.00	30.219 
00:35	44.8	44.8	44.8	68	34.9	0	0	---	0.00	30.219 
00:40	44.6	44.6	44.6	69	35.1	0	0	---	0.00	30.218 
00:45	44.5	44.5	44.5	69	35.0	0	0	---	0.00	30.217 
00:50	44.2	44.2	44.2	70	35.0	0	0	---	0.00	30.215 
00:55	43.9	43.9	43.9	70	34.8	0	0	---	0.00	30.213 
01:00	43.8	43.8	43.8	71	35.0	0	0	---	0.00	30.212 
01:05	43.8	43.8	43.8	71	35.0	0	0	---	0.00	30.211 
01:10	43.6	43.6	43.6	73	35.5	0	0	---	0.00	30.208 
01:15	43.5	43.5	43.5	72	35.1	0	0	---	0.00	30.204 
01:20	43.2	43.2	43.2	72	34.8	0	0	---	0.00	30.205 
01:25	43.1	43.1	43.1	73	35.0	0	0	---	0.00	30.204 
01:30	42.9	42.9	42.9	74	35.2	0	0	---	0.00	30.205 
01:35	42.8	42.8	42.8	75	35.4	0	0	---	0.00	30.205 
01:40	42.6	42.6	42.6	75	35.2	0	0	---	0.00	30.204 
01:45	42.5	42.5	42.5	76	35.5	0	0	---	0.00	30.204 
01:50	42.3	42.3	42.3	76	35.3	0	0	---	0.00	30.204 
01:55	42.1	42.1	42.1	77	35.4	0	0	---	0.00	30.202 
02:00	41.9	41.9	41.9	78	35.5	0	0	---	0.00	30.201 
02:05	41.9	41.9	41.9	79	35.9	0	0	---	0.00	30.203 
02:10	41.8	41.8	41.8	80	36.1	0	0	---	0.00	30.203 
02:15	41.6	41.6	41.6	80	35.9	0	0	---	0.00	30.203 
02:20	41.5	41.5	41.5	81	36.1	0	0	---	0.00	30.201 
02:25	41.3	41.3	41.3	81	35.9	0	0	---	0.00	30.202 
02:30	41.2	41.2	41.2	82	36.1	0	0	---	0.00	30.204 
02:35	41.1	41.1	41.1	82	36.0	0	0	---	0.00	30.204 
02:40	40.9	40.9	40.9	83	36.1	0	0	---	0.00	30.202 
02:45	40.8	40.8	40.8	83	36.0	0	0	---	0.00	30.203 
02:50	40.8	40.8	40.8	84	36.3	0	0	---	0.00	30.203 
02:55	40.6	40.6	40.6	84	36.2	0	0	---	0.00	30.203 
03:00	40.5	40.5	40.5	85	36.4	0	0	---	0.00	30.203 
03:05	40.3	40.3	40.3	85	36.2	0	0	---	0.00	30.203 
03:10	40.2	40.2	40.2	86	36.4	0	0	---	0.00	30.203 
03:15	40.1	40.1	40.1	86	36.3	0	0	---	0.00	30.201 
03:20	39.9	39.9	39.9	86	36.1	0	0	---	0.00	30.201 
03:25	39.8	39.8	39.8	86	36.0	0	0	---	0.00	30.201 
03:30	39.6	39.6	39.6	87	36.1	0	0	---	0.00	30.201 
03:35	39.6	39.6	39.6	87	36.1	0	0	---	0.00	30.200 
03:40	39.5	39.5	39.5	88	36.2	0	0	---	0.00	30.198 
03:45	39.5	39.5	39.5	88	36.2	0	0	---	0.00	30.200 
03:50	39.3	39.3	39.3	88	36.0	0	0	---	0.00	30.203 
03:55	39.3	39.3	39.3	88	36.0	0	0	---	0.00	30.204 
04:00	39.2	39.2	39.2	89	36.2	0	0	---	0.00	30.202 
04:05	39.1	39.1	39.1	89	36.1	0	0	---	0.00	30.203 
04:10	38.9	38.9	38.9	89	35.9	0	0	---	0.00	30.204 
04:15	38.9	38.9	38.9	89	35.9	0	0	---	0.00	30.203 
04:20	38.8	38.8	38.8	90	36.1	0	0	---	0.00	30.203 
04:25	38.8	38.8	38.8	90	36.1	0	0	---	0.00	30.205 
04:30	38.6	38.6	38.6	90	35.9	0	0	---	0.00	30.205 
04:35	38.5	38.5	38.5	90	35.8	0	0	---	0.00	30.204 
04:40	38.5	38.5	38.5	90	35.8	0	0	---	0.00	30.205 
04:45	38.3	38.3	38.3	90	35.6	0	0	---	0.00	30.205 
04:50	38.3	38.3	38.3	91	35.9	0	0	---	0.00	30.205 
04:55	38.3	38.3	38.3	91	35.9	0	0	---	0.00	30.205 
05:00	38.3	38.3	38.3	91	35.9	0	0	---	0.00	30.206 
05:05	38.2	38.2	38.2	91	35.8	0	0	---	0.00	30.207 
05:10	38.2	38.2	38.2	91	35.8	0	0	---	0.00	30.207 
05:15	38.0	38.0	38.0	91	35.6	0	0	---	0.00	30.205 
05:20	38.0	38.0	38.0	91	35.6	0	0	---	0.00	30.206 
05:25	38.0	38.0	38.0	92	35.9	0	0	---	0.00	30.207 
05:30	38.0	38.0	38.0	92	35.9	0	0	---	0.00	30.207 
05:35	38.0	38.0	38.0	92	35.9	0	0	---	0.00	30.207 
05:40	38.0	38.0	38.0	92	35.9	0	0	---	0.00	30.209 
05:45	38.3	38.3	38.3	92	36.2	0	0	---	0.00	30.213 
05:50	38.5	38.5	38.5	92	36.4	0	0	---	0.00	30.217 
05:55	38.8	38.8	38.8	92	36.7	0	0	---	0.00	30.217 
06:00	38.9	38.9	38.9	92	36.8	0	0	---	0.00	30.213 
06:05	39.2	39.2	39.2	93	37.3	0	0	---	0.00	30.216 
06:10	39.6	39.6	39.6	93	37.7	0	0	---	0.00	30.218 
06:15	40.1	40.1	40.1	93	38.2	0	0	---	0.00	30.217 
06:20	41.1	41.1	41.1	94	39.5	0	0	---	0.00	30.213 
06:25	41.9	41.9	41.9	94	40.3	0	0	---	0.00	30.217 
06:30	42.9	42.9	42.9	93	41.0	0	0	---	0.00	30.212 
06:35	43.8	43.8	43.8	92	41.6	0	0	---	0.00	30.215 
06:40	44.8	44.8	44.8	91	42.3	0	0	---	0.00	30.212 
06:45	45.8	45.8	45.8	87	42.2	0	0	---	0.00	30.216 
06:50	46.8	46.8	46.8	82	41.6	0	1	90	0.00	30.216 
06:55	48.2	48.2	48.2	74	40.3	0	1	90	0.00	30.216 
07:00	49.4	49.4	49.4	69	39.7	0	0	---	0.00	30.216 
07:05	51.0	51.0	51.0	65	39.7	0	1	90	0.00	30.221 
07:10	52.2	52.2	52.2	62	39.6	0	0	---	0.00	30.223 
07:15	52.6	52.6	52.6	58	38.2	0	0	---	0.00	30.227 
07:20	53.6	53.6	53.6	56	38.3	0	1	90	0.00	30.229 
07:25	54.8	54.8	54.8	51	37.0	0	1	90	0.00	30.223 
07:30	55.9	55.9	55.9	49	37.0	0	1	90	0.00	30.219 
07:35	56.5	56.5	56.5	50	38.1	0	1	90	0.00	30.218 
07:40	56.7	56.7	56.7	45	35.6	1	3	90	0.00	30.212 
07:45	56.9	56.9	56.9	48	37.4	0	2	90	0.00	30.211 
07:50	57.2	57.2	57.2	46	36.6	0	2	90	0.00	30.211 
07:55	58.0	58.0	58.0	41	34.4	0	2	90	0.00	30.210 
08:00	58.6	58.6	58.6	42	35.6	0	1	90	0.00	30.209 
08:05	59.3	59.3	59.3	41	35.6	0	2	90	0.00	30.212 
08:10	60.1	60.1	60.1	39	35.1	0	1	90	0.00	30.211 
08:15	60.5	60.5	60.5	32	30.5	1	2	90	0.00	30.211 
08:20	60.4	60.4	60.4	31	29.6	1	2	90	0.00	30.211 
08:25	60.2	60.2	60.2	37	33.8	0	3	90	0.00	30.212 
08:30	60.9	60.9	60.9	30	29.3	0	2	90	0.00	30.209 
08:35	61.5	61.5	61.5	37	35.0	0	2	90	0.00	30.203 
08:40	61.6	61.6	61.6	28	28.2	1	4	90	0.00	30.204 
08:45	61.5	61.5	61.5	32	31.4	1	3	90	0.00	30.203 
08:50	61.2	61.2	61.2	31	30.3	1	3	90	0.00	30.207 
08:55	61.6	61.6	61.6	26	26.4	1	3	90	0.00	30.208 
09:00	62.3	62.3	62.3	27	27.9	1	3	90	0.00	30.210 
09:05	63.1	63.1	63.1	31	32.0	0	1	90	0.00	30.211 
09:10	64.0	64.0	64.0	28	30.2	0	2	90	0.00	30.213 
09:15	64.7	64.7	64.7	27	29.9	1	2	90	0.00	30.211 
09:20	65.3	65.3	65.3	26	29.5	0	2	90	0.00	30.211 
09:25	65.5	65.5	65.5	28	31.5	0	2	90	0.00	30.211 
09:30	65.8	65.8	65.8	28	31.8	0	2	90	0.00	30.211 
09:35	66.1	66.1	66.1	31	34.6	0	2	90	0.00	30.210 
09:40	66.6	66.6	66.6	28	32.5	0	2	90	0.00	30.207 
09:45	67.1	67.1	67.1	26	31.1	1	3	135	0.00	30.203 
09:50	66.9	66.9	66.9	28	32.7	1	5	90	0.00	30.202 
09:55	66.3	66.3	66.3	28	32.2	2	5	90	0.00	30.208 
10:00	66.4	66.4	66.4	31	34.8	0	3	90	0.00	30.203 
10:05	67.3	67.3	67.3	33	37.2	1	3	90	0.00	30.199 
10:10	67.8	67.8	67.8	28	33.5	1	3	90	0.00	30.199 
10:15	67.9	67.9	67.9	28	33.6	1	3	90	0.00	30.197 
10:20	68.3	68.3	68.3	27	33.0	1	3	22	0.00	30.197 
10:25	68.6	68.6	68.6	28	34.2	1	4	135	0.00	30.195 
10:30	68.6	68.6	68.6	28	34.2	1	4	90	0.00	30.195 
10:35	68.6	68.6	68.6	30	35.9	0	2	90	0.00	30.196 
10:40	69.1	69.1	69.1	25	31.8	2	4	90	0.00	30.194 
10:45	69.1	69.1	69.1	27	33.7	1	4	112	0.00	30.192 
10:50	68.9	68.9	68.9	25	31.6	1	4	248	0.00	30.191 
10:55	69.3	69.3	69.3	29	35.7	0	3	90	0.00	30.191 
11:00	69.3	69.3	69.3	26	32.9	1	3	90	0.00	30.186 
11:05	69.4	69.4	69.4	26	33.0	1	4	112	0.00	30.188 
11:10	69.8	69.8	69.8	25	32.4	1	4	112	0.00	30.187 
11:15	70.1	70.1	70.1	24	31.6	1	5	112	0.00	30.192 
11:20	69.8	69.8	69.8	25	32.4	0	2	90	0.00	30.193 
11:25	70.1	70.1	70.1	28	35.5	1	3	90	0.00	30.191 
11:30	70.6	70.6	70.6	26	34.0	0	2	90	0.00	30.188 
11:35	70.8	70.8	70.8	23	31.2	1	3	112	0.00	30.188 
11:40	70.3	70.3	70.3	24	31.8	1	2	112	0.00	30.184 
11:45	70.6	70.6	70.6	25	33.1	1	5	112	0.00	30.183 
11:50	70.8	70.8	70.8	24	32.2	2	6	112	0.00	30.182 
11:55	70.9	70.9	70.9	24	32.3	1	3	112	0.00	30.179 
12:00	70.9	70.9	70.9	29	37.0	1	3	112	0.00	30.177 
12:05	71.3	71.3	71.3	27	35.6	1	5	112	0.00	30.176 
12:10	71.1	71.1	71.1	28	36.3	0	1	68	0.00	30.173 
12:15	71.5	71.5	71.5	28	36.7	2	5	90	0.00	30.174 
12:20	71.3	71.3	71.3	26	34.6	0	3	90	0.00	30.175 
12:25	71.5	71.5	71.5	21	29.5	1	3	90	0.00	30.173 
12:30	71.1	71.1	71.1	25	33.5	1	3	90	0.00	30.171 
12:35	71.5	71.5	71.5	26	34.8	0	1	90	0.00	30.170 
12:40	72.0	72.0	72.0	22	31.1	0	1	90	0.00	30.166 
12:45	72.3	72.3	72.3	25	34.5	0	2	90	0.00	30.166 
12:50	72.3	72.3	72.3	28	37.4	1	2	90	0.00	30.165 
12:55	72.1	72.1	72.1	22	31.2	0	2	90	0.00	30.165 
13:00	71.8	71.8	71.8	22	30.9	1	3	90	0.00	30.165 
13:05	71.8	71.8	71.8	27	36.0	1	4	90	0.00	30.165 
13:10	72.1	72.1	72.1	24	33.3	1	4	112	0.00	30.160 
13:15	72.3	72.3	72.3	23	32.4	1	4	112	0.00	30.153 
13:20	72.1	72.1	72.1	23	32.3	1	3	90	0.00	30.152 
13:25	72.1	72.1	72.1	24	33.3	1	2	90	0.00	30.151 
13:30	72.0	72.0	72.0	23	32.2	2	4	90	0.00	30.149 
13:35	71.8	71.8	71.8	24	33.1	0	1	90	0.00	30.150 
13:40	72.3	72.3	72.3	26	35.5	1	4	90	0.00	30.148 
13:45	72.5	72.5	72.5	23	32.6	1	4	90	0.00	30.146 
13:50	72.5	72.5	72.5	22	31.5	1	3	90	0.00	30.147 
13:55	73.0	73.0	73.0	25	35.1	0	3	90	0.00	30.146 
14:00	73.5	73.5	73.5	27	37.5	1	2	90	0.00	30.143 
14:05	73.7	73.7	73.7	25	35.7	1	3	90	0.00	30.141 
14:10	73.7	73.7	73.7	22	32.5	1	3	112	0.00	30.140 
14:15	73.5	73.5	73.5	22	32.3	1	3	90	0.00	30.139 
14:20	73.5	73.5	73.5	23	33.4	1	3	90	0.00	30.141 
14:25	73.9	73.9	73.9	22	32.7	1	3	90	0.00	30.140 
14:30	74.0	74.0	74.0	22	32.7	1	3	135	0.00	30.138 
14:35	74.4	74.4	74.4	25	36.3	0	1	135	0.00	30.137 
14:40	74.2	74.2	74.2	21	31.7	1	3	315	0.00	30.140 
14:45	73.7	73.7	73.7	23	33.6	1	4	68	0.00	30.137 
14:50	73.5	73.5	73.5	24	34.5	0	2	68	0.00	30.135 
14:55	74.2	74.2	74.2	24	35.1	0	2	68	0.00	30.135 
15:00	74.7	74.7	74.7	23	34.4	0	2	68	0.00	30.130 
15:05	74.2	74.2	74.2	22	32.9	1	3	68	0.00	30.134 
15:10	74.2	74.2	74.2	21	31.7	1	3	248	0.00	30.132 
15:15	74.2	74.2	74.2	21	31.7	0	2	248	0.00	30.131 
15:20	74.4	74.4	74.4	24	35.2	0	2	248	0.00	30.127 
15:25	74.2	74.2	74.2	21	31.7	0	2	248	0.00	30.126 
15:30	74.2	74.2	74.2	22	32.9	1	2	180	0.00	30.122 
15:35	73.9	73.9	73.9	21	31.5	0	1	180	0.00	30.121 
15:40	73.7	73.7	73.7	24	34.7	0	3	202	0.00	30.120 
15:45	73.9	73.9	73.9	22	32.7	0	1	202	0.00	30.117 
15:50	74.2	74.2	74.2	25	36.1	0	3	202	0.00	30.108 
15:55	74.2	74.2	74.2	23	34.0	0	2	202	0.00	30.108 
16:00	73.9	73.9	73.9	22	32.7	0	1	202	0.00	30.107 
16:05	73.5	73.5	73.5	22	32.3	0	2	202	0.00	30.107 
16:10	73.3	73.3	73.3	26	36.3	0	1	202	0.00	30.107 
16:15	73.5	73.5	73.5	26	36.5	1	3	202	0.00	30.093 
16:20	72.8	72.8	72.8	24	33.9	2	4	90	0.00	30.083 
16:25	72.7	72.7	72.7	25	34.8	2	4	90	0.00	30.073 
16:30	72.7	72.7	72.7	25	34.8	3	10	112	0.00	30.058 
16:35	72.3	72.3	72.3	25	34.5	3	12	90	0.00	30.049 
16:40	72.3	72.3	72.3	26	35.5	3	11	90	0.00	30.050 
16:45	71.8	71.8	71.8	25	34.1	4	7	90	0.00	30.046 
16:50	71.8	71.8	71.8	26	35.1	2	6	90	0.00	30.055 
16:55	71.8	71.8	71.8	25	34.1	2	5	112	0.00	30.066 
17:00	71.6	71.6	71.6	26	34.9	1	4	68	0.00	30.062 
17:05	71.8	71.8	71.8	27	36.0	0	1	68	0.00	30.064 
17:10	72.0	72.0	72.0	26	35.2	0	1	68	0.00	30.069 
17:15	72.0	72.0	72.0	24	33.2	0	2	68	0.00	30.061 
17:20	72.1	72.1	72.1	26	35.3	0	1	68	0.00	30.080 
17:25	72.1	72.1	72.1	23	32.3	0	1	68	0.00	30.090 
17:30	72.1	72.1	72.1	25	34.3	0	1	68	0.00	30.094 
17:35	72.1	72.1	72.1	27	36.3	0	1	68	0.00	30.092 
17:40	72.1	72.1	72.1	27	36.3	0	1	68	0.00	30.095 
17:45	72.0	72.0	72.0	25	34.2	0	1	68	0.00	30.094 
17:50	72.0	72.0	72.0	26	35.2	0	1	68	0.00	30.093 
17:55	72.0	72.0	72.0	26	35.2	0	1	68	0.00	30.094 
18:00	72.0	72.0	72.0	25	34.2	0	1	68	0.00	30.107 
18:05	72.0	72.0	72.0	26	35.2	0	1	68	0.00	30.095 
18:10	72.0	72.0	72.0	27	36.2	0	1	68	0.00	30.086 
18:15	71.8	71.8	71.8	26	35.1	0	0	---	0.00	30.083 
18:20	71.8	71.8	71.8	26	35.1	0	1	68	0.00	30.077 
18:25	71.8	71.8	71.8	27	36.0	0	1	68	0.00	30.068 
18:30	71.5	71.5	71.5	27	35.8	1	2	68	0.00	30.049 
18:35	71.1	71.1	71.1	27	35.4	0	1	68	0.00	30.049 
18:40	70.9	70.9	70.9	29	37.0	0	0	---	0.00	30.056 
18:45	70.6	70.6	70.6	28	35.9	0	0	---	0.00	30.062 
18:50	70.4	70.4	70.4	29	36.6	0	0	---	0.00	30.064 
18:55	70.1	70.1	70.1	31	38.1	0	0	---	0.00	30.060 
19:00	69.9	69.9	69.9	32	38.7	0	1	68	0.00	30.054 
19:05	69.6	69.6	69.6	34	40.0	0	1	68	0.00	30.044 
19:10	69.3	69.3	69.3	34	39.7	0	1	68	0.00	30.044 
19:15	68.9	68.9	68.9	34	39.4	0	0	---	0.00	30.046 
19:20	68.8	68.8	68.8	33	38.5	0	0	---	0.00	30.051 
19:25	68.4	68.4	68.4	34	38.9	0	0	---	0.00	30.054 
19:30	68.3	68.3	68.3	36	40.3	0	0	---	0.00	30.058 
19:35	67.9	67.9	67.9	38	41.3	0	0	---	0.00	30.062 
19:40	67.6	67.6	67.6	38	41.1	0	0	---	0.00	30.063 
19:45	67.4	67.4	67.4	37	40.2	0	0	---	0.00	30.063 
19:50	67.3	67.3	67.3	39	41.5	0	0	---	0.00	30.061 
19:55	66.9	66.9	66.9	41	42.4	0	0	---	0.00	30.062 
20:00	66.8	66.8	66.8	40	41.7	0	0	---	0.00	30.056 
20:05	66.4	66.4	66.4	42	42.6	0	0	---	0.00	30.055 
20:10	66.1	66.1	66.1	42	42.3	0	0	---	0.00	30.059 
20:15	65.8	65.8	65.8	41	41.4	0	0	---	0.00	30.058 
20:20	65.6	65.6	65.6	44	43.1	0	0	---	0.00	30.056 
20:25	65.5	65.5	65.5	44	43.0	0	0	---	0.00	30.054 
20:30	65.3	65.3	65.3	46	44.0	0	0	---	0.00	30.047 
20:35	65.0	65.0	65.0	49	45.4	0	1	68	0.00	30.048 
20:40	64.5	64.5	64.5	47	43.8	0	0	---	0.00	30.050 
20:45	64.2	64.2	64.2	47	43.5	0	0	---	0.00	30.050 
20:50	63.9	63.9	63.9	49	44.4	0	0	---	0.00	30.048 
20:55	63.7	63.7	63.7	51	45.2	0	0	---	0.00	30.045 
21:00	63.2	63.2	63.2	52	45.3	0	0	---	0.00	30.048 
21:05	62.9	62.9	62.9	48	42.9	0	0	---	0.00	30.047 
21:10	62.4	62.4	62.4	48	42.4	0	0	---	0.00	30.055 
21:15	62.3	62.3	62.3	49	42.9	0	0	---	0.00	30.058 
21:20	62.0	62.0	62.0	52	44.2	0	0	---	0.00	30.056 
21:25	61.8	61.8	61.8	53	44.5	0	0	---	0.00	30.053 
21:30	61.6	61.6	61.6	53	44.3	0	0	---	0.00	30.048 
21:35	61.3	61.3	61.3	52	43.5	0	0	---	0.00	30.046 
21:40	61.0	61.0	61.0	53	43.7	0	0	---	0.00	30.046 
21:45	60.7	60.7	60.7	52	43.0	0	0	---	0.00	30.048 
21:50	60.4	60.4	60.4	54	43.7	0	0	---	0.00	30.047 
21:55	60.2	60.2	60.2	53	43.0	0	0	---	0.00	30.046 
22:00	60.1	60.1	60.1	53	42.9	0	0	---	0.00	30.043 
22:05	59.9	59.9	59.9	53	42.7	0	0	---	0.00	30.038 
22:10	59.8	59.8	59.8	55	43.6	0	0	---	0.00	30.029 
22:15	59.6	59.6	59.6	55	43.4	0	0	---	0.00	30.027 
22:20	59.5	59.5	59.5	57	44.3	0	0	---	0.00	30.028 
22:25	59.0	59.0	59.0	55	42.9	0	0	---	0.00	30.027 
22:30	58.9	58.9	58.9	55	42.8	0	0	---	0.00	30.024 
22:35	58.6	58.6	58.6	55	42.5	0	0	---	0.00	30.025 
22:40	58.4	58.4	58.4	55	42.3	0	0	---	0.00	30.017 
22:45	58.1	58.1	58.1	56	42.5	0	0	---	0.00	30.023 
22:50	57.8	57.8	57.8	58	43.1	0	1	68	0.00	30.022 
22:55	57.3	57.3	57.3	58	42.6	0	1	68	0.00	30.015 
23:00	57.2	57.2	57.2	57	42.1	0	0	---	0.00	30.017 
23:05	57.2	57.2	57.2	55	41.2	0	0	---	0.00	30.014 
23:10	57.2	57.2	57.2	57	42.1	0	0	---	0.00	30.012 
23:15	57.0	57.0	57.0	57	41.9	0	0	---	0.00	30.014 
23:20	56.9	56.9	56.9	58	42.3	0	0	---	0.00	30.012 
23:25	56.7	56.7	56.7	55	40.7	0	0	---	0.00	30.018 
23:30	56.7	56.7	56.7	55	40.7	0	0	---	0.00	30.019 
23:35	56.6	56.6	56.6	57	41.5	0	0	---	0.00	30.015 
23:40	56.5	56.5	56.5	58	41.9	0	0	---	0.00	30.017 
23:45	56.5	56.5	56.5	59	42.3	0	0	---	0.00	30.008 
23:50	56.2	56.2	56.2	57	41.2	0	0	---	0.00	30.010 
23:55	56.0	56.0	56.0	56	40.5	0	0	---	0.00	30.005 

CoCoRaHS
IN-AL-39
A2 Web Hosting
Creative Commons License
GoDaddy
Look for:

loaded 2017-10-19 20:06:12 • last modified 2010-11-18 10:43:29
Privacy PolicyDisclaimer
• wx.awcolley.com is powered by PmWiki v.2002016 •
• all content (unless otherwise noted) © 2017 A W Colley